sensor_id;sensor_type;location;lat;lon;timestamp;P1;durP1;ratioP1;P2;durP2;ratioP2
37199;SDS011;23096;50.892;16.746;2023-07-13T00:00:11;6.30;;;3.50;;
37199;SDS011;23096;50.892;16.746;2023-07-13T00:02:40;5.40;;;3.60;;
37199;SDS011;23096;50.892;16.746;2023-07-13T00:05:06;7.90;;;3.30;;
37199;SDS011;23096;50.892;16.746;2023-07-13T00:07:32;7.30;;;3.20;;
37199;SDS011;23096;50.892;16.746;2023-07-13T00:09:58;6.60;;;3.60;;
37199;SDS011;23096;50.892;16.746;2023-07-13T00:12:32;4.80;;;3.80;;
37199;SDS011;23096;50.892;16.746;2023-07-13T00:15:02;9.20;;;3.80;;
37199;SDS011;23096;50.892;16.746;2023-07-13T00:17:32;7.20;;;4.30;;
37199;SDS011;23096;50.892;16.746;2023-07-13T00:19:58;4.20;;;3.40;;
37199;SDS011;23096;50.892;16.746;2023-07-13T00:22:24;5.30;;;3.40;;
37199;SDS011;23096;50.892;16.746;2023-07-13T00:24:53;5.90;;;4.30;;
37199;SDS011;23096;50.892;16.746;2023-07-13T00:27:21;8.90;;;4.40;;
37199;SDS011;23096;50.892;16.746;2023-07-13T00:29:48;6.40;;;3.40;;
37199;SDS011;23096;50.892;16.746;2023-07-13T00:32:13;8.80;;;4.70;;
37199;SDS011;23096;50.892;16.746;2023-07-13T00:34:39;4.80;;;3.40;;
37199;SDS011;23096;50.892;16.746;2023-07-13T00:37:06;6.00;;;3.80;;
37199;SDS011;23096;50.892;16.746;2023-07-13T00:39:35;4.90;;;3.40;;
37199;SDS011;23096;50.892;16.746;2023-07-13T00:42:02;5.00;;;3.90;;
37199;SDS011;23096;50.892;16.746;2023-07-13T00:44:29;5.40;;;3.80;;
37199;SDS011;23096;50.892;16.746;2023-07-13T00:46:55;4.90;;;3.30;;
37199;SDS011;23096;50.892;16.746;2023-07-13T00:49:23;6.30;;;3.50;;
37199;SDS011;23096;50.892;16.746;2023-07-13T00:51:52;8.40;;;4.10;;
37199;SDS011;23096;50.892;16.746;2023-07-13T00:54:26;6.40;;;4.00;;
37199;SDS011;23096;50.892;16.746;2023-07-13T00:56:55;8.80;;;3.80;;
37199;SDS011;23096;50.892;16.746;2023-07-13T00:59:24;4.70;;;3.80;;
37199;SDS011;23096;50.892;16.746;2023-07-13T01:01:51;7.60;;;3.90;;
37199;SDS011;23096;50.892;16.746;2023-07-13T01:04:17;5.40;;;3.50;;
37199;SDS011;23096;50.892;16.746;2023-07-13T01:06:46;5.80;;;4.40;;
37199;SDS011;23096;50.892;16.746;2023-07-13T01:09:12;7.40;;;4.10;;
37199;SDS011;23096;50.892;16.746;2023-07-13T01:11:41;9.20;;;3.80;;
37199;SDS011;23096;50.892;16.746;2023-07-13T01:14:07;6.10;;;3.80;;
37199;SDS011;23096;50.892;16.746;2023-07-13T01:16:34;7.70;;;4.30;;
37199;SDS011;23096;50.892;16.746;2023-07-13T01:19:02;8.20;;;4.10;;
37199;SDS011;23096;50.892;16.746;2023-07-13T01:24:00;6.80;;;3.40;;
37199;SDS011;23096;50.892;16.746;2023-07-13T01:26:27;6.30;;;3.90;;
37199;SDS011;23096;50.892;16.746;2023-07-13T01:28:52;8.10;;;4.00;;
37199;SDS011;23096;50.892;16.746;2023-07-13T01:31:18;8.90;;;4.50;;
37199;SDS011;23096;50.892;16.746;2023-07-13T01:33:44;6.90;;;4.10;;
37199;SDS011;23096;50.892;16.746;2023-07-13T01:36:10;7.70;;;4.10;;
37199;SDS011;23096;50.892;16.746;2023-07-13T01:38:37;7.10;;;4.80;;
37199;SDS011;23096;50.892;16.746;2023-07-13T01:41:02;7.00;;;3.90;;
37199;SDS011;23096;50.892;16.746;2023-07-13T01:43:28;7.60;;;4.00;;
37199;SDS011;23096;50.892;16.746;2023-07-13T01:45:55;7.80;;;4.70;;
37199;SDS011;23096;50.892;16.746;2023-07-13T01:48:20;6.50;;;4.60;;
37199;SDS011;23096;50.892;16.746;2023-07-13T01:50:47;6.60;;;4.00;;
37199;SDS011;23096;50.892;16.746;2023-07-13T01:53:13;6.60;;;4.00;;
37199;SDS011;23096;50.892;16.746;2023-07-13T01:55:39;8.90;;;4.40;;
37199;SDS011;23096;50.892;16.746;2023-07-13T01:58:05;7.30;;;4.50;;
37199;SDS011;23096;50.892;16.746;2023-07-13T02:00:31;8.40;;;5.50;;
37199;SDS011;23096;50.892;16.746;2023-07-13T02:02:58;14.00;;;6.00;;
37199;SDS011;23096;50.892;16.746;2023-07-13T02:05:23;9.00;;;4.80;;
37199;SDS011;23096;50.892;16.746;2023-07-13T02:07:49;7.20;;;4.30;;
37199;SDS011;23096;50.892;16.746;2023-07-13T02:10:15;10.70;;;4.50;;
37199;SDS011;23096;50.892;16.746;2023-07-13T02:12:41;8.20;;;5.60;;
37199;SDS011;23096;50.892;16.746;2023-07-13T02:15:08;10.90;;;5.00;;
37199;SDS011;23096;50.892;16.746;2023-07-13T02:17:34;9.20;;;4.80;;
37199;SDS011;23096;50.892;16.746;2023-07-13T02:20:01;11.60;;;5.40;;
37199;SDS011;23096;50.892;16.746;2023-07-13T02:22:27;10.40;;;5.80;;
37199;SDS011;23096;50.892;16.746;2023-07-13T02:24:56;8.30;;;5.70;;
37199;SDS011;23096;50.892;16.746;2023-07-13T02:27:21;11.00;;;5.30;;
37199;SDS011;23096;50.892;16.746;2023-07-13T02:29:49;6.90;;;4.80;;
37199;SDS011;23096;50.892;16.746;2023-07-13T02:32:16;7.60;;;4.60;;
37199;SDS011;23096;50.892;16.746;2023-07-13T02:34:43;8.50;;;4.90;;
37199;SDS011;23096;50.892;16.746;2023-07-13T02:37:10;10.30;;;5.50;;
37199;SDS011;23096;50.892;16.746;2023-07-13T02:39:35;8.40;;;5.30;;
37199;SDS011;23096;50.892;16.746;2023-07-13T02:42:02;11.60;;;5.30;;
37199;SDS011;23096;50.892;16.746;2023-07-13T02:44:28;7.20;;;5.00;;
37199;SDS011;23096;50.892;16.746;2023-07-13T02:46:55;10.30;;;5.60;;
37199;SDS011;23096;50.892;16.746;2023-07-13T02:49:20;10.10;;;4.70;;
37199;SDS011;23096;50.892;16.746;2023-07-13T02:51:46;7.30;;;4.50;;
37199;SDS011;23096;50.892;16.746;2023-07-13T02:54:12;6.00;;;4.50;;
37199;SDS011;23096;50.892;16.746;2023-07-13T02:56:39;8.20;;;4.20;;
37199;SDS011;23096;50.892;16.746;2023-07-13T02:59:05;8.20;;;5.00;;
37199;SDS011;23096;50.892;16.746;2023-07-13T03:01:31;6.70;;;4.40;;
37199;SDS011;23096;50.892;16.746;2023-07-13T03:04:01;7.40;;;5.20;;
37199;SDS011;23096;50.892;16.746;2023-07-13T03:06:27;6.40;;;4.30;;
37199;SDS011;23096;50.892;16.746;2023-07-13T03:08:55;8.00;;;4.00;;
37199;SDS011;23096;50.892;16.746;2023-07-13T03:11:22;7.70;;;3.60;;
37199;SDS011;23096;50.892;16.746;2023-07-13T03:14:08;4.90;;;4.10;;
37199;SDS011;23096;50.892;16.746;2023-07-13T03:16:34;6.00;;;3.50;;
37199;SDS011;23096;50.892;16.746;2023-07-13T03:19:00;5.20;;;4.00;;
37199;SDS011;23096;50.892;16.746;2023-07-13T03:21:26;5.50;;;3.90;;
37199;SDS011;23096;50.892;16.746;2023-07-13T03:23:51;7.20;;;3.70;;
37199;SDS011;23096;50.892;16.746;2023-07-13T03:26:18;4.90;;;3.80;;
37199;SDS011;23096;50.892;16.746;2023-07-13T03:28:46;5.70;;;4.00;;
37199;SDS011;23096;50.892;16.746;2023-07-13T03:31:17;7.40;;;3.70;;
37199;SDS011;23096;50.892;16.746;2023-07-13T03:33:45;5.30;;;3.50;;
37199;SDS011;23096;50.892;16.746;2023-07-13T03:36:15;5.60;;;3.70;;
37199;SDS011;23096;50.892;16.746;2023-07-13T03:38:51;10.00;;;3.70;;
37199;SDS011;23096;50.892;16.746;2023-07-13T03:41:21;6.20;;;3.70;;
37199;SDS011;23096;50.892;16.746;2023-07-13T03:43:48;6.10;;;3.70;;
37199;SDS011;23096;50.892;16.746;2023-07-13T03:46:14;6.90;;;3.80;;
37199;SDS011;23096;50.892;16.746;2023-07-13T03:48:41;4.90;;;3.40;;
37199;SDS011;23096;50.892;16.746;2023-07-13T03:51:08;5.00;;;3.50;;
37199;SDS011;23096;50.892;16.746;2023-07-13T03:53:38;6.90;;;3.80;;
37199;SDS011;23096;50.892;16.746;2023-07-13T03:56:06;6.40;;;4.00;;
37199;SDS011;23096;50.892;16.746;2023-07-13T03:58:34;9.80;;;4.10;;
37199;SDS011;23096;50.892;16.746;2023-07-13T04:01:11;11.60;;;4.40;;
37199;SDS011;23096;50.892;16.746;2023-07-13T04:03:38;10.80;;;3.90;;
37199;SDS011;23096;50.892;16.746;2023-07-13T04:06:04;7.50;;;3.40;;
37199;SDS011;23096;50.892;16.746;2023-07-13T04:08:35;6.00;;;2.90;;
37199;SDS011;23096;50.892;16.746;2023-07-13T04:11:02;6.50;;;2.20;;
37199;SDS011;23096;50.892;16.746;2023-07-13T04:13:30;8.50;;;2.90;;
37199;SDS011;23096;50.892;16.746;2023-07-13T04:15:55;8.10;;;2.60;;
37199;SDS011;23096;50.892;16.746;2023-07-13T04:18:21;8.70;;;2.70;;
37199;SDS011;23096;50.892;16.746;2023-07-13T04:20:47;12.00;;;2.80;;
37199;SDS011;23096;50.892;16.746;2023-07-13T04:23:14;8.00;;;3.70;;
37199;SDS011;23096;50.892;16.746;2023-07-13T04:25:43;13.50;;;3.70;;
37199;SDS011;23096;50.892;16.746;2023-07-13T04:28:09;19.40;;;3.30;;
37199;SDS011;23096;50.892;16.746;2023-07-13T04:30:35;7.70;;;3.40;;
37199;SDS011;23096;50.892;16.746;2023-07-13T04:33:00;12.10;;;4.00;;
37199;SDS011;23096;50.892;16.746;2023-07-13T04:35:26;3.30;;;2.50;;
37199;SDS011;23096;50.892;16.746;2023-07-13T04:37:52;8.60;;;3.30;;
37199;SDS011;23096;50.892;16.746;2023-07-13T04:40:18;5.70;;;2.90;;
37199;SDS011;23096;50.892;16.746;2023-07-13T04:42:45;9.50;;;3.50;;
37199;SDS011;23096;50.892;16.746;2023-07-13T04:45:12;6.20;;;2.70;;
